Terminal Aerodrome Forecast
Issued by NWS Sterling, VA

Current Version | Previous Version | Graphics & Text | Print | Product List | Glossary On
Versions: 1 2 3 4 5 6 7 8 9 10 11 12 13 14 15 16 17 18 19 20 21 22 23 24 25 26
000
FTUS41 KLWX 280005 AAA
TAFDCA
TAF AMD
KDCA 280005Z 2800/2824 04014KT 4SM RA BKN007 OVC013
     FM280100 04013KT P6SM OVC009
     FM280500 27004KT 3SM -SHRA BR BKN060
     FM280900 27007KT 6SM -SHRA BR SCT090
     FM281200 26007KT P6SM SCT250
     FM281800 26015G24KT P6SM BKN060=

USA.gov is the U.S. government's official web portal to all federal, state and local government web resources and services.